Time;durP1;ratioP1;P1;durP2;ratioP2;P2;SDS_P1;SDS_P2;PMS_P1;PMS_P2;Temp;Humidity;BMP_temperature;BMP_pressure;BME280_temperature;BME280_humidity;BME280_pressure;Samples;Min_cycle;Max_cycle;Signal;HPM_P1;HPM_P2
2024/02/18 00:02:10;;;;;;;36.17;9.60;;;13.30;99.90;;;;;;5047235;28;20104;-50
2024/02/18 00:04:41;;;;;;;26.58;9.95;;;13.30;99.90;;;;;;5029190;28;20092;-50
2024/02/18 00:07:09;;;;;;;30.67;10.00;;;13.30;99.90;;;;;;5045968;28;20052;-49
2024/02/18 00:09:46;;;;;;;34.33;10.05;;;13.30;99.90;;;;;;5047171;28;20049;-49
2024/02/18 00:12:15;;;;;;;28.80;10.10;;;13.30;99.90;;;;;;5047020;28;20045;-50
2024/02/18 00:14:43;;;;;;;25.85;9.55;;;13.20;99.90;;;;;;5047123;28;20036;-49
2024/02/18 00:17:09;;;;;;;29.88;10.55;;;13.30;99.90;;;;;;5045779;28;20038;-49
2024/02/18 00:19:43;;;;;;;28.67;10.07;;;13.20;99.90;;;;;;5029305;28;20033;-49
2024/02/18 00:22:11;;;;;;;32.88;10.18;;;13.20;99.90;;;;;;5030552;28;20049;-49
2024/02/18 00:24:51;;;;;;;26.35;9.25;;;13.20;99.90;;;;;;5045646;28;20081;-49
2024/02/18 00:27:20;;;;;;;25.15;8.68;;;13.20;99.90;;;;;;5045798;28;20040;-50
2024/02/18 00:29:45;;;;;;;32.55;9.50;;;13.20;99.90;;;;;;5046908;28;20028;-49
2024/02/18 00:32:11;;;;;;;32.90;10.20;;;13.20;99.90;;;;;;5046727;28;20096;-50
2024/02/18 00:34:36;;;;;;;36.90;9.60;;;13.20;99.90;;;;;;5012720;28;20037;-49
2024/02/18 00:37:02;;;;;;;30.85;9.18;;;13.20;99.90;;;;;;5045465;28;20472;-49
2024/02/18 00:39:28;;;;;;;24.48;9.65;;;13.20;99.90;;;;;;5045473;28;20052;-49
2024/02/18 00:41:53;;;;;;;30.85;10.15;;;13.10;99.90;;;;;;5046480;28;20061;-50
2024/02/18 00:44:23;;;;;;;30.00;9.32;;;13.10;99.90;;;;;;5045416;28;20022;-49
2024/02/18 00:46:50;;;;;;;19.25;9.05;;;13.20;99.90;;;;;;5029308;28;20037;-49
2024/02/18 00:49:15;;;;;;;36.03;9.73;;;13.10;99.90;;;;;;5045247;28;20029;-49
2024/02/18 00:51:41;;;;;;;24.98;8.80;;;13.10;99.90;;;;;;5045133;28;20037;-50
2024/02/18 00:54:07;;;;;;;23.33;8.38;;;13.10;99.90;;;;;;5046641;28;20025;-50
2024/02/18 00:56:32;;;;;;;30.10;9.15;;;13.10;99.90;;;;;;5046365;28;20025;-50
2024/02/18 00:58:58;;;;;;;32.42;10.18;;;13.10;99.90;;;;;;5046374;28;20052;-49
2024/02/18 01:01:23;;;;;;;26.10;9.90;;;13.10;99.90;;;;;;5044836;28;20048;-49
2024/02/18 01:03:49;;;;;;;21.40;9.63;;;13.00;99.90;;;;;;5045125;28;20021;-50
2024/02/18 01:06:14;;;;;;;28.05;9.38;;;13.00;99.90;;;;;;5045065;28;20022;-50
2024/02/18 01:08:41;;;;;;;33.95;9.88;;;13.00;99.90;;;;;;5046400;28;20087;-49
2024/02/18 01:11:06;;;;;;;24.92;8.68;;;13.00;99.90;;;;;;5045021;28;20030;-50
2024/02/18 01:13:32;;;;;;;22.40;8.50;;;13.00;99.90;;;;;;5044821;28;20124;-49
2024/02/18 01:15:58;;;;;;;29.02;9.32;;;13.00;99.90;;;;;;5044979;28;20032;-49
2024/02/18 01:18:24;;;;;;;30.75;9.02;;;13.00;99.90;;;;;;5046221;28;20030;-50
2024/02/18 01:20:49;;;;;;;24.33;9.13;;;13.00;99.90;;;;;;5046386;28;20042;-49
2024/02/18 01:23:15;;;;;;;21.42;8.82;;;13.00;99.90;;;;;;5044976;28;20029;-50
2024/02/18 01:25:40;;;;;;;22.52;8.73;;;12.90;99.90;;;;;;5028284;28;20044;-50
2024/02/18 01:28:06;;;;;;;24.23;8.63;;;12.90;99.90;;;;;;5044639;28;20064;-49
2024/02/18 01:30:32;;;;;;;23.70;8.85;;;12.90;99.90;;;;;;5017081;28;20500;-49
2024/02/18 01:32:57;;;;;;;24.17;8.88;;;12.90;99.90;;;;;;5024467;28;20037;-49
2024/02/18 01:35:23;;;;;;;22.60;9.27;;;12.90;99.90;;;;;;5026284;28;20018;-49
2024/02/18 01:37:48;;;;;;;25.88;8.85;;;12.90;99.90;;;;;;5027846;28;20089;-49
2024/02/18 01:40:14;;;;;;;26.13;9.15;;;12.90;99.90;;;;;;5030072;28;20033;-49
2024/02/18 01:42:40;;;;;;;21.33;7.72;;;12.90;99.90;;;;;;5030213;28;20061;-49
2024/02/18 01:45:06;;;;;;;23.48;8.73;;;12.80;99.90;;;;;;5012603;28;20084;-49
2024/02/18 01:47:33;;;;;;;21.60;9.10;;;12.80;99.90;;;;;;5012376;28;20034;-49
2024/02/18 01:49:58;;;;;;;20.42;8.27;;;12.80;99.90;;;;;;5028835;28;20124;-49
2024/02/18 01:52:24;;;;;;;22.38;9.00;;;12.80;99.90;;;;;;5029801;28;20030;-49
2024/02/18 01:54:50;;;;;;;19.83;8.82;;;12.80;99.90;;;;;;5012246;28;20030;-49
2024/02/18 01:57:15;;;;;;;25.40;8.82;;;12.80;99.90;;;;;;5012203;28;20041;-50
2024/02/18 01:59:41;;;;;;;25.00;7.95;;;12.80;99.90;;;;;;5012236;28;20048;-50
2024/02/18 02:02:06;;;;;;;22.65;8.63;;;12.80;99.90;;;;;;5011825;28;20029;-49
2024/02/18 02:04:32;;;;;;;20.60;9.10;;;12.80;99.90;;;;;;5012402;28;20033;-50
2024/02/18 02:06:58;;;;;;;21.35;8.48;;;12.80;99.90;;;;;;5012409;28;20029;-50
2024/02/18 02:09:24;;;;;;;25.55;8.43;;;12.80;99.90;;;;;;5028347;28;20412;-50
2024/02/18 02:11:50;;;;;;;21.10;8.40;;;12.80;99.90;;;;;;5028141;28;20058;-49
2024/02/18 02:14:16;;;;;;;19.65;8.63;;;12.70;99.90;;;;;;5011913;28;20025;-50
2024/02/18 02:16:41;;;;;;;21.27;8.90;;;12.70;99.90;;;;;;5028098;28;20018;-49
2024/02/18 02:19:07;;;;;;;19.38;8.80;;;12.70;99.90;;;;;;5011745;28;20034;-49
2024/02/18 02:21:33;;;;;;;19.60;8.75;;;12.70;99.90;;;;;;5027959;28;20026;-49
2024/02/18 02:23:58;;;;;;;21.40;8.05;;;12.70;99.90;;;;;;5028170;28;20033;-49
2024/02/18 02:26:24;;;;;;;21.67;8.57;;;12.70;99.90;;;;;;5028025;28;20026;-49
2024/02/18 02:29:18;;;;;;;21.75;8.73;;;12.70;99.90;;;;;;4995356;28;20026;-49
2024/02/18 02:31:47;;;;;;;21.90;8.20;;;12.70;99.90;;;;;;5013669;28;20480;-49
2024/02/18 02:34:13;;;;;;;22.60;8.60;;;12.60;99.90;;;;;;4996012;28;20028;-49
2024/02/18 02:36:39;;;;;;;18.35;8.30;;;12.60;99.90;;;;;;5027873;28;20092;-50
2024/02/18 02:39:04;;;;;;;19.77;8.57;;;12.60;99.90;;;;;;5029130;28;20025;-49
2024/02/18 02:41:30;;;;;;;16.98;8.50;;;12.60;99.90;;;;;;5029015;28;20049;-49
2024/02/18 02:43:56;;;;;;;19.23;9.30;;;12.60;99.90;;;;;;5027691;28;20036;-49
2024/02/18 02:46:21;;;;;;;19.35;8.30;;;12.60;99.90;;;;;;5028896;28;20038;-49
2024/02/18 02:48:47;;;;;;;17.35;7.80;;;12.60;99.90;;;;;;5028284;28;20024;-50
2024/02/18 02:51:15;;;;;;;21.73;8.65;;;12.60;99.90;;;;;;5010632;28;20033;-50
2024/02/18 02:53:41;;;;;;;16.15;7.88;;;12.60;99.90;;;;;;5027335;28;20048;-50
2024/02/18 02:56:07;;;;;;;17.13;7.95;;;12.60;99.90;;;;;;5011083;28;20026;-49
2024/02/18 02:58:33;;;;;;;21.27;8.25;;;12.50;99.90;;;;;;5027472;28;20030;-50
2024/02/18 03:00:58;;;;;;;18.63;7.82;;;12.50;99.90;;;;;;5011250;28;20069;-50
2024/02/18 03:03:24;;;;;;;17.48;8.07;;;12.50;99.90;;;;;;5027327;28;20034;-49
2024/02/18 03:05:49;;;;;;;19.77;7.90;;;12.60;99.90;;;;;;5028431;28;20535;-50
2024/02/18 03:08:15;;;;;;;21.20;8.38;;;12.50;99.90;;;;;;5010907;28;20030;-49
2024/02/18 03:10:41;;;;;;;16.58;7.80;;;12.50;99.90;;;;;;5011204;28;20026;-49
2024/02/18 03:13:07;;;;;;;13.95;7.97;;;12.50;99.90;;;;;;5010619;28;20038;-50
2024/02/18 03:15:33;;;;;;;19.90;7.90;;;12.50;99.90;;;;;;5027116;28;20022;-49
2024/02/18 03:17:58;;;;;;;18.52;8.82;;;12.50;99.90;;;;;;5010770;28;20032;-50
2024/02/18 03:20:24;;;;;;;20.50;8.20;;;12.50;99.90;;;;;;5027154;28;20025;-50
2024/02/18 03:22:50;;;;;;;16.77;8.85;;;12.50;99.90;;;;;;5028373;28;20061;-49
2024/02/18 03:25:20;;;;;;;18.60;8.50;;;12.50;99.90;;;;;;5028285;28;20038;-49
2024/02/18 03:27:46;;;;;;;18.08;8.38;;;12.40;99.90;;;;;;5010889;28;20034;-49
2024/02/18 03:30:12;;;;;;;18.73;8.20;;;12.40;99.90;;;;;;5026817;28;20113;-50
2024/02/18 03:32:37;;;;;;;14.85;8.13;;;12.40;99.90;;;;;;5027607;28;20069;-49
2024/02/18 03:35:06;;;;;;;20.33;8.57;;;12.40;99.90;;;;;;5027125;28;20029;-49
2024/02/18 03:37:32;;;;;;;18.27;8.27;;;12.40;99.90;;;;;;4994500;28;20021;-49
2024/02/18 03:39:58;;;;;;;19.42;8.25;;;12.40;99.90;;;;;;5027969;28;20362;-50
2024/02/18 03:42:23;;;;;;;19.40;8.35;;;12.40;99.90;;;;;;5026563;28;20404;-50
2024/02/18 03:44:49;;;;;;;16.38;7.68;;;12.40;99.90;;;;;;5026476;28;20055;-50
2024/02/18 03:47:15;;;;;;;15.02;7.93;;;12.30;99.90;;;;;;5026763;28;20026;-50
2024/02/18 03:49:40;;;;;;;15.85;8.80;;;12.30;99.90;;;;;;5026663;28;20506;-49
2024/02/18 03:52:06;;;;;;;12.18;8.07;;;12.30;99.90;;;;;;5026335;28;20041;-49
2024/02/18 03:54:32;;;;;;;15.65;7.50;;;12.30;99.90;;;;;;5010101;28;20021;-49
2024/02/18 03:56:58;;;;;;;18.90;8.48;;;12.30;99.90;;;;;;5026422;28;20077;-49
2024/02/18 03:59:23;;;;;;;15.63;7.82;;;12.30;99.90;;;;;;5026294;28;20029;-49
2024/02/18 04:01:49;;;;;;;17.85;8.80;;;12.30;99.90;;;;;;5025975;28;20026;-49
2024/02/18 04:04:15;;;;;;;16.95;7.95;;;12.30;99.90;;;;;;5026358;28;20080;-50
2024/02/18 04:06:40;;;;;;;12.30;8.00;;;12.30;99.90;;;;;;5027554;28;20101;-50
2024/02/18 04:09:06;;;;;;;19.45;8.27;;;12.30;99.90;;;;;;5026454;28;20026;-49
2024/02/18 04:11:32;;;;;;;16.15;8.70;;;12.30;99.90;;;;;;5026593;28;20029;-49
2024/02/18 04:13:58;;;;;;;16.58;8.52;;;12.30;99.90;;;;;;5009774;28;20061;-49
2024/02/18 04:16:23;;;;;;;17.13;8.18;;;12.30;99.90;;;;;;5027191;28;20018;-50
2024/02/18 04:18:49;;;;;;;16.63;8.95;;;12.30;99.90;;;;;;5027241;28;20052;-49
2024/02/18 04:21:14;;;;;;;12.38;8.32;;;12.30;99.90;;;;;;5027168;28;20018;-49
2024/02/18 04:23:40;;;;;;;14.38;8.63;;;12.20;99.90;;;;;;5009473;28;20038;-49
2024/02/18 04:26:06;;;;;;;16.50;8.98;;;12.20;99.90;;;;;;5025833;28;20076;-49
2024/02/18 04:28:32;;;;;;;13.10;8.50;;;12.20;99.90;;;;;;5025920;28;20057;-49
2024/02/18 04:30:58;;;;;;;16.25;8.55;;;12.20;99.90;;;;;;5009744;28;20030;-49
2024/02/18 04:33:23;;;;;;;16.40;8.30;;;12.20;99.90;;;;;;5009114;28;20037;-49
2024/02/18 04:35:49;;;;;;;16.77;8.50;;;12.20;99.90;;;;;;5025627;28;20021;-50
2024/02/18 04:38:15;;;;;;;12.95;9.13;;;12.20;99.90;;;;;;4993037;28;20036;-49
2024/02/18 04:40:40;;;;;;;10.55;8.05;;;12.20;99.90;;;;;;5009229;28;20045;-49
2024/02/18 04:43:06;;;;;;;12.75;8.43;;;12.20;99.90;;;;;;5009173;28;20038;-49
2024/02/18 04:45:32;;;;;;;17.15;9.52;;;12.20;99.90;;;;;;5026926;28;20017;-49
2024/02/18 04:47:57;;;;;;;16.00;9.27;;;12.20;99.90;;;;;;5026680;28;20034;-49
2024/02/18 04:50:23;;;;;;;17.60;8.75;;;12.20;99.90;;;;;;5026689;28;20022;-49
2024/02/18 04:52:48;;;;;;;16.30;8.95;;;12.20;99.90;;;;;;5025423;28;20510;-50
2024/02/18 04:55:14;;;;;;;16.85;9.23;;;12.20;99.90;;;;;;5026640;28;20037;-49
2024/02/18 04:57:39;;;;;;;14.93;8.68;;;12.20;99.90;;;;;;5025470;28;20030;-49
2024/02/18 05:00:05;;;;;;;15.68;8.40;;;12.20;99.90;;;;;;5025304;28;20021;-50
2024/02/18 05:02:32;;;;;;;11.68;8.60;;;12.20;99.90;;;;;;5026470;28;20098;-50
2024/02/18 05:04:59;;;;;;;13.55;8.45;;;12.20;99.90;;;;;;5026485;28;20029;-49
2024/02/18 05:07:25;;;;;;;13.13;8.43;;;12.20;99.90;;;;;;5025301;28;20030;-49
2024/02/18 05:09:50;;;;;;;14.85;9.00;;;12.20;99.90;;;;;;5025438;28;20049;-49
2024/02/18 05:12:16;;;;;;;14.55;8.98;;;12.10;99.90;;;;;;5024563;28;20048;-49
2024/02/18 05:14:41;;;;;;;14.65;9.20;;;12.10;99.90;;;;;;5026278;28;20030;-50
2024/02/18 05:17:07;;;;;;;16.88;9.30;;;12.10;99.90;;;;;;5025144;28;20092;-49
2024/02/18 05:19:33;;;;;;;15.02;9.55;;;12.10;99.90;;;;;;5025322;28;20026;-49
2024/02/18 05:21:58;;;;;;;16.17;9.63;;;12.10;99.90;;;;;;5025166;28;20076;-50
2024/02/18 05:24:24;;;;;;;12.05;8.48;;;12.10;99.90;;;;;;5026193;28;20025;-50
2024/02/18 05:26:49;;;;;;;12.88;8.80;;;12.10;99.90;;;;;;5008519;28;20022;-50
2024/02/18 05:29:15;;;;;;;13.85;9.43;;;12.10;99.90;;;;;;5024984;28;20022;-50
2024/02/18 05:31:41;;;;;;;17.85;9.50;;;12.10;99.90;;;;;;5026163;28;20034;-49
2024/02/18 05:34:06;;;;;;;13.65;9.27;;;12.10;99.90;;;;;;5008573;28;20038;-49
2024/02/18 05:36:32;;;;;;;15.02;9.57;;;12.10;99.90;;;;;;5025254;28;20025;-49
2024/02/18 05:38:57;;;;;;;16.73;9.00;;;12.10;99.90;;;;;;5008624;28;20026;-50
2024/02/18 05:41:23;;;;;;;10.65;8.50;;;12.10;99.90;;;;;;5024998;28;20022;-50
2024/02/18 05:43:49;;;;;;;13.95;10.02;;;12.10;99.90;;;;;;5024900;28;20057;-49
2024/02/18 05:46:14;;;;;;;13.20;9.35;;;12.10;99.90;;;;;;5026323;28;20022;-49
2024/02/18 05:48:40;;;;;;;11.98;8.65;;;12.10;99.90;;;;;;5008477;28;20030;-50
2024/02/18 05:51:06;;;;;;;13.20;9.27;;;12.10;99.90;;;;;;5024897;28;20121;-50
2024/02/18 05:53:32;;;;;;;15.18;8.98;;;12.00;99.90;;;;;;4992153;28;20030;-49
2024/02/18 05:55:57;;;;;;;14.52;9.60;;;12.10;99.90;;;;;;5024965;28;20032;-49
2024/02/18 05:58:23;;;;;;;12.27;8.85;;;12.10;99.90;;;;;;5008521;28;20033;-49
2024/02/18 06:00:49;;;;;;;13.65;9.00;;;12.00;99.90;;;;;;5024932;28;20156;-49
2024/02/18 06:03:15;;;;;;;12.05;9.27;;;12.00;99.90;;;;;;5024914;28;20030;-50
2024/02/18 06:05:41;;;;;;;11.55;9.57;;;12.00;99.90;;;;;;5025903;28;20045;-50
2024/02/18 06:08:07;;;;;;;16.08;9.18;;;12.00;99.90;;;;;;5024694;28;20030;-49
2024/02/18 06:10:33;;;;;;;12.82;8.43;;;12.00;99.90;;;;;;5024813;28;20036;-50
2024/02/18 06:13:00;;;;;;;12.13;8.98;;;12.00;99.90;;;;;;5025668;28;20066;-50
2024/02/18 06:15:26;;;;;;;14.15;8.80;;;12.00;99.90;;;;;;5024715;28;20105;-49
2024/02/18 06:17:56;;;;;;;14.00;9.23;;;12.00;99.90;;;;;;5024752;28;20057;-49
2024/02/18 06:20:22;;;;;;;13.70;9.02;;;12.00;99.90;;;;;;5025125;28;20054;-49
2024/02/18 06:22:47;;;;;;;14.48;8.75;;;12.00;99.90;;;;;;5008378;28;20465;-49
2024/02/18 06:25:13;;;;;;;12.38;9.63;;;12.00;99.90;;;;;;5011004;28;20042;-49
2024/02/18 06:27:39;;;;;;;12.30;9.00;;;12.00;99.90;;;;;;5011716;28;20481;-50
2024/02/18 06:30:05;;;;;;;12.85;9.23;;;11.90;99.90;;;;;;5028344;28;20390;-50
2024/02/18 06:32:31;;;;;;;13.40;9.10;;;11.90;99.90;;;;;;5029242;28;20065;-49
2024/02/18 06:34:57;;;;;;;12.68;8.80;;;11.90;99.90;;;;;;5027913;28;20026;-49
2024/02/18 06:37:22;;;;;;;11.55;9.23;;;12.00;99.90;;;;;;5029194;28;20034;-49
2024/02/18 06:39:48;;;;;;;10.57;9.02;;;11.90;99.90;;;;;;5027883;28;20022;-49
2024/02/18 06:42:13;;;;;;;15.55;9.55;;;11.90;99.90;;;;;;5011498;28;20034;-49
2024/02/18 06:44:39;;;;;;;12.57;9.18;;;11.90;99.90;;;;;;5029065;28;20026;-49
2024/02/18 06:47:04;;;;;;;13.30;9.60;;;11.90;99.90;;;;;;5011462;28;20460;-50
2024/02/18 06:49:31;;;;;;;11.48;9.57;;;11.90;99.90;;;;;;5011323;28;20038;-49
2024/02/18 06:51:57;;;;;;;14.00;9.90;;;11.90;99.90;;;;;;5027550;28;20061;-49
2024/02/18 06:54:22;;;;;;;13.15;8.52;;;11.90;99.90;;;;;;5028832;28;20038;-49
2024/02/18 06:56:48;;;;;;;12.57;8.93;;;11.90;99.90;;;;;;5028930;28;20058;-50
2024/02/18 06:59:15;;;;;;;13.27;10.10;;;11.90;99.90;;;;;;5011209;28;20026;-50
2024/02/18 07:01:41;;;;;;;14.63;9.38;;;11.90;99.90;;;;;;5027503;28;20038;-49
2024/02/18 07:04:07;;;;;;;11.52;9.02;;;11.90;99.90;;;;;;5010986;28;20053;-49
2024/02/18 07:06:32;;;;;;;11.02;8.93;;;11.90;99.90;;;;;;5027360;28;20022;-50
2024/02/18 07:08:58;;;;;;;12.00;9.52;;;11.90;99.90;;;;;;5028523;28;20456;-49
2024/02/18 07:11:25;;;;;;;11.75;9.35;;;11.90;99.90;;;;;;5028365;28;20090;-49
2024/02/18 07:13:52;;;;;;;11.30;9.07;;;11.90;99.90;;;;;;5028312;28;20069;-50
2024/02/18 07:16:18;;;;;;;12.75;9.55;;;11.90;99.90;;;;;;4994431;28;20026;-49
2024/02/18 07:18:43;;;;;;;11.30;8.95;;;11.90;99.90;;;;;;5027131;28;20156;-49
2024/02/18 07:21:09;;;;;;;13.70;9.57;;;11.90;99.90;;;;;;5028472;28;20021;-49
2024/02/18 07:23:34;;;;;;;11.32;9.63;;;11.80;99.90;;;;;;5026917;28;20045;-49
2024/02/18 07:26:00;;;;;;;11.85;9.38;;;11.80;99.90;;;;;;5028214;28;20068;-49
2024/02/18 07:28:26;;;;;;;13.77;9.07;;;11.90;99.90;;;;;;5026566;28;20068;-49
2024/02/18 07:30:52;;;;;;;13.38;9.95;;;11.90;99.90;;;;;;5028177;28;20037;-50
2024/02/18 07:33:17;;;;;;;11.65;9.65;;;11.90;99.90;;;;;;5027769;28;20042;-49
2024/02/18 07:35:43;;;;;;;11.57;9.35;;;11.90;99.90;;;;;;5027273;28;20033;-49
2024/02/18 07:38:08;;;;;;;13.70;10.07;;;11.90;99.90;;;;;;5028021;28;20030;-49
2024/02/18 07:40:34;;;;;;;12.25;9.65;;;11.90;99.90;;;;;;5026872;28;20022;-49
2024/02/18 07:43:00;;;;;;;10.52;8.93;;;11.90;99.90;;;;;;5027979;28;20157;-49
2024/02/18 07:45:25;;;;;;;11.55;9.32;;;11.90;99.90;;;;;;5026469;28;20030;-49
2024/02/18 07:47:51;;;;;;;14.18;9.85;;;11.80;99.90;;;;;;5026544;28;20034;-49
2024/02/18 07:50:17;;;;;;;11.57;9.30;;;11.80;99.90;;;;;;5026369;28;20030;-49
2024/02/18 07:52:42;;;;;;;11.40;9.63;;;11.90;99.90;;;;;;5027641;28;20044;-49
2024/02/18 07:55:08;;;;;;;10.60;9.00;;;11.80;99.90;;;;;;5026508;28;20026;-50
2024/02/18 07:57:33;;;;;;;11.63;9.35;;;11.80;99.90;;;;;;5026351;28;20040;-49
2024/02/18 07:59:59;;;;;;;12.35;9.90;;;11.80;99.90;;;;;;5026281;28;20022;-49
2024/02/18 08:02:26;;;;;;;11.13;9.35;;;11.80;99.90;;;;;;5027627;28;20030;-50
2024/02/18 08:04:52;;;;;;;10.60;9.40;;;11.80;99.90;;;;;;5010123;28;20025;-49
2024/02/18 08:07:19;;;;;;;11.02;9.60;;;11.90;99.90;;;;;;5027504;28;20041;-50
2024/02/18 08:09:45;;;;;;;11.48;9.73;;;11.90;99.90;;;;;;5009817;28;20041;-50
2024/02/18 08:12:10;;;;;;;12.35;10.07;;;11.90;99.90;;;;;;5026064;28;20038;-49
2024/02/18 08:14:36;;;;;;;13.85;10.00;;;11.90;99.90;;;;;;5026021;28;20068;-49
2024/02/18 08:17:01;;;;;;;11.50;9.80;;;11.90;99.90;;;;;;5025927;28;20093;-49
2024/02/18 08:19:27;;;;;;;11.45;10.25;;;11.90;99.90;;;;;;5027228;28;20072;-50
2024/02/18 08:21:52;;;;;;;13.02;10.13;;;11.90;99.90;;;;;;5027298;28;20026;-50
2024/02/18 08:24:18;;;;;;;13.43;10.00;;;11.90;99.90;;;;;;5010324;28;20026;-49
2024/02/18 08:26:44;;;;;;;12.57;9.45;;;11.90;99.90;;;;;;5025766;28;20041;-49
2024/02/18 08:29:09;;;;;;;13.23;10.35;;;12.00;99.90;;;;;;5025940;28;20060;-49
2024/02/18 08:31:35;;;;;;;11.63;10.30;;;12.00;99.90;;;;;;5026833;28;20018;-49
2024/02/18 08:34:01;;;;;;;10.93;9.73;;;12.00;99.90;;;;;;5025872;28;20041;-49
2024/02/18 08:36:27;;;;;;;12.20;10.55;;;12.00;99.90;;;;;;5025710;28;20022;-49
2024/02/18 08:38:52;;;;;;;12.00;9.85;;;12.00;99.90;;;;;;5027123;28;20033;-49
2024/02/18 08:41:18;;;;;;;11.38;9.57;;;12.00;99.90;;;;;;5025538;28;20022;-50
2024/02/18 08:43:43;;;;;;;11.30;9.70;;;12.00;99.90;;;;;;5009116;28;20034;-50
2024/02/18 08:46:09;;;;;;;12.05;10.00;;;12.00;99.90;;;;;;5009030;28;20026;-49
2024/02/18 08:48:37;;;;;;;10.65;9.55;;;12.00;99.90;;;;;;5024524;28;20030;-49
2024/02/18 08:51:03;;;;;;;11.32;9.55;;;12.00;99.90;;;;;;5025561;28;20057;-49
2024/02/18 08:53:28;;;;;;;12.25;10.10;;;12.10;99.90;;;;;;5025370;28;20453;-50
2024/02/18 08:55:54;;;;;;;11.82;9.95;;;12.10;99.90;;;;;;4992736;28;20033;-50
2024/02/18 08:58:19;;;;;;;11.88;10.32;;;12.10;99.90;;;;;;5025394;28;20103;-50
2024/02/18 09:00:47;;;;;;;12.18;10.55;;;12.10;99.90;;;;;;5025331;28;20029;-49
2024/02/18 09:03:13;;;;;;;12.95;9.93;;;12.10;99.90;;;;;;5032306;28;20029;-49
2024/02/18 09:05:39;;;;;;;12.52;10.68;;;12.10;99.90;;;;;;5044585;28;20116;-50
2024/02/18 09:08:06;;;;;;;12.10;10.75;;;12.10;99.90;;;;;;5027894;28;20036;-49
2024/02/18 09:10:32;;;;;;;13.48;10.90;;;12.10;99.90;;;;;;5028574;28;20112;-49
2024/02/18 09:13:00;;;;;;;13.82;10.50;;;12.20;99.90;;;;;;5046036;28;20042;-50
2024/02/18 09:15:27;;;;;;;13.48;10.43;;;12.20;99.90;;;;;;5046144;28;20057;-49
2024/02/18 09:17:52;;;;;;;16.52;11.15;;;12.20;99.90;;;;;;5045925;28;20060;-49
2024/02/18 09:20:18;;;;;;;13.63;11.43;;;12.30;99.90;;;;;;5045922;28;20021;-50
2024/02/18 09:22:43;;;;;;;12.13;10.40;;;12.30;99.90;;;;;;5044595;28;20034;-49
2024/02/18 09:25:09;;;;;;;17.38;11.50;;;12.30;99.90;;;;;;5044580;28;20030;-50
2024/02/18 09:27:35;;;;;;;23.58;12.23;;;12.30;99.90;;;;;;5028202;28;20044;-50
2024/02/18 09:30:01;;;;;;;14.68;11.57;;;12.40;99.90;;;;;;5044825;28;20045;-50
2024/02/18 09:32:26;;;;;;;37.22;13.38;;;12.40;99.90;;;;;;5044221;28;20041;-50
2024/02/18 09:34:52;;;;;;;35.80;14.13;;;12.40;99.90;;;;;;5044648;28;20018;-50
2024/02/18 09:37:17;;;;;;;32.72;13.93;;;12.50;99.90;;;;;;5044407;28;20056;-50
2024/02/18 09:39:43;;;;;;;26.88;13.35;;;12.50;99.90;;;;;;5044398;28;20602;-49
2024/02/18 09:42:09;;;;;;;28.75;12.68;;;12.50;99.90;;;;;;5027932;28;20029;-49
2024/02/18 09:44:35;;;;;;;21.70;12.27;;;12.50;99.90;;;;;;5028137;28;20025;-50
2024/02/18 09:47:02;;;;;;;20.40;12.50;;;12.60;99.90;;;;;;5045760;28;20074;-50
2024/02/18 09:49:31;;;;;;;25.30;13.00;;;12.60;99.90;;;;;;5028044;28;20028;-50
2024/02/18 09:51:56;;;;;;;26.08;13.45;;;12.60;99.90;;;;;;5027750;28;20537;-50
2024/02/18 09:54:23;;;;;;;39.67;14.23;;;12.60;99.90;;;;;;5028020;28;20022;-50
2024/02/18 09:56:48;;;;;;;60.55;18.05;;;12.70;99.90;;;;;;5027982;28;20033;-50
2024/02/18 09:59:15;;;;;;;38.60;16.20;;;12.70;99.90;;;;;;5047018;28;20026;-50
2024/02/18 10:01:43;;;;;;;44.17;14.45;;;12.70;99.90;;;;;;5031597;28;20045;-50
2024/02/18 10:04:09;;;;;;;69.43;17.48;;;12.70;99.90;;;;;;5032053;28;20029;-50
2024/02/18 10:06:34;;;;;;;82.68;17.38;;;12.80;99.90;;;;;;5048255;28;20348;-50
2024/02/18 10:09:00;;;;;;;66.15;17.00;;;12.80;99.90;;;;;;5049492;28;20029;-50
2024/02/18 10:11:26;;;;;;;51.70;15.65;;;12.80;99.90;;;;;;5048112;28;20025;-50
2024/02/18 10:13:56;;;;;;;57.63;17.17;;;12.80;99.90;;;;;;5027539;28;20814;-49
2024/02/18 10:16:22;;;;;;;60.22;18.48;;;12.90;99.90;;;;;;5034195;28;20025;-50
2024/02/18 10:18:47;;;;;;;65.95;16.65;;;12.90;99.90;;;;;;5042413;28;20117;-49
2024/02/18 10:21:16;;;;;;;72.35;18.58;;;13.00;99.90;;;;;;5047596;28;20021;-50
2024/02/18 10:23:42;;;;;;;57.85;16.73;;;13.00;99.90;;;;;;5027114;28;20491;-50
2024/02/18 10:26:08;;;;;;;134.02;23.40;;;13.10;99.90;;;;;;5023051;28;20068;-50
2024/02/18 10:28:40;;;;;;;119.18;25.02;;;13.10;99.90;;;;;;5041304;28;20045;-50
2024/02/18 10:31:07;;;;;;;110.13;23.75;;;13.10;99.90;;;;;;5043546;28;20052;-50
2024/02/18 10:33:33;;;;;;;124.90;22.02;;;13.20;99.90;;;;;;5046035;28;20053;-50
2024/02/18 10:36:08;;;;;;;108.05;21.88;;;13.20;99.90;;;;;;5044456;28;20029;-50
2024/02/18 10:38:35;;;;;;;99.60;21.65;;;13.20;99.90;;;;;;5037856;28;20026;-50
2024/02/18 10:41:03;;;;;;;171.48;26.80;;;13.30;99.90;;;;;;5043343;28;20089;-50
2024/02/18 10:43:30;;;;;;;174.30;28.17;;;13.30;99.90;;;;;;5045543;28;20025;-49
2024/02/18 10:45:55;;;;;;;175.05;25.95;;;13.30;99.90;;;;;;5029092;28;20026;-50
2024/02/18 10:48:21;;;;;;;121.60;24.38;;;13.40;99.90;;;;;;5059904;28;20095;-49
2024/02/18 10:50:49;;;;;;;109.82;21.83;;;13.40;99.90;;;;;;5046600;28;20026;-50
2024/02/18 10:53:34;;;;;;;137.55;25.00;;;13.40;99.90;;;;;;5045787;28;20030;-50
2024/02/18 10:56:10;;;;;;;96.13;21.13;;;13.50;99.90;;;;;;5029405;28;20037;-49
2024/02/18 10:58:57;;;;;;;128.23;23.52;;;13.50;99.90;;;;;;5046144;28;20026;-49
2024/02/18 11:01:23;;;;;;;149.40;24.77;;;13.50;99.90;;;;;;5045636;28;20039;-50
2024/02/18 11:03:55;;;;;;;117.90;23.10;;;13.60;99.90;;;;;;5046275;28;20049;-50
2024/02/18 11:06:21;;;;;;;168.07;26.50;;;13.60;99.90;;;;;;5045826;28;20032;-50
2024/02/18 11:08:47;;;;;;;146.48;24.80;;;13.70;99.90;;;;;;5046022;28;20025;-50
2024/02/18 11:11:13;;;;;;;133.80;23.70;;;13.70;99.90;;;;;;5028846;28;20025;-49
2024/02/18 11:13:39;;;;;;;130.90;24.33;;;13.70;99.90;;;;;;5024537;28;20034;-50
2024/02/18 11:16:05;;;;;;;308.02;41.22;;;13.70;99.90;;;;;;5019976;28;20025;-49
2024/02/18 11:18:31;;;;;;;148.80;25.77;;;13.80;99.90;;;;;;5035325;28;20030;-50
2024/02/18 11:20:57;;;;;;;126.15;24.35;;;13.80;99.90;;;;;;5027237;28;20080;-50
2024/02/18 11:23:23;;;;;;;140.60;24.02;;;13.80;99.90;;;;;;5034804;28;20049;-50
2024/02/18 11:25:50;;;;;;;137.02;23.42;;;13.90;99.90;;;;;;5044265;28;20036;-50
2024/02/18 11:28:16;;;;;;;120.75;21.90;;;13.90;99.90;;;;;;5027038;28;20037;-50
2024/02/18 11:30:42;;;;;;;106.55;21.17;;;13.90;99.90;;;;;;5026476;28;20036;-50
2024/02/18 11:33:07;;;;;;;103.07;19.38;;;14.00;99.90;;;;;;5042971;28;20029;-50
2024/02/18 11:35:33;;;;;;;130.45;22.48;;;14.00;99.90;;;;;;5043675;28;20403;-49
2024/02/18 11:37:59;;;;;;;337.02;34.70;;;14.10;99.90;;;;;;5041745;28;20037;-50
2024/02/18 11:40:24;;;;;;;314.38;39.15;;;14.00;99.90;;;;;;5039201;28;20052;-50
2024/02/18 11:42:50;;;;;;;367.63;38.08;;;14.10;99.90;;;;;;5040421;28;20491;-50
2024/02/18 11:45:17;;;;;;;200.40;29.02;;;14.20;99.90;;;;;;5042528;28;20026;-49
2024/02/18 11:47:52;;;;;;;506.83;57.97;;;14.40;99.90;;;;;;5043964;28;20037;-49
2024/02/18 11:50:19;;;;;;;318.85;41.60;;;14.30;99.90;;;;;;5036210;28;20022;-50
2024/02/18 11:52:46;;;;;;;224.00;31.70;;;14.30;99.90;;;;;;5027141;28;20048;-49
2024/02/18 11:55:15;;;;;;;197.70;27.65;;;14.40;99.90;;;;;;5041766;28;20021;-49
2024/02/18 11:57:41;;;;;;;186.23;26.45;;;14.40;99.90;;;;;;5045230;28;20037;-50
2024/02/18 12:00:09;;;;;;;203.98;30.00;;;14.40;99.90;;;;;;5042561;28;20024;-49
2024/02/18 12:02:38;;;;;;;217.68;27.58;;;14.50;99.90;;;;;;5049925;28;20036;-49
2024/02/18 12:05:05;;;;;;;254.95;29.63;;;14.60;99.90;;;;;;5060938;28;20032;-50
2024/02/18 12:07:31;;;;;;;215.55;27.25;;;14.60;99.90;;;;;;5045053;28;20109;-50
2024/02/18 12:09:57;;;;;;;256.45;31.30;;;14.60;99.90;;;;;;5032066;28;20102;-50
2024/02/18 12:12:23;;;;;;;209.23;28.52;;;14.70;99.90;;;;;;5055881;28;20048;-49
2024/02/18 12:14:53;;;;;;;202.52;25.48;;;14.60;99.90;;;;;;5045440;28;20026;-49
2024/02/18 12:17:19;;;;;;;200.05;25.52;;;14.70;99.90;;;;;;5043171;28;20499;-49
2024/02/18 12:19:45;;;;;;;215.77;28.85;;;14.70;99.90;;;;;;5048131;28;20021;-49
2024/02/18 12:22:21;;;;;;;201.27;26.73;;;14.70;99.90;;;;;;5054899;28;20055;-49
2024/02/18 12:24:48;;;;;;;206.15;29.95;;;14.70;99.90;;;;;;5033889;28;20060;-49
2024/02/18 12:27:14;;;;;;;225.98;27.70;;;14.80;99.90;;;;;;5050530;28;20113;-49